Time;durP1;ratioP1;P1;durP2;ratioP2;P2;SDS_P1;SDS_P2;PMS_P1;PMS_P2;Temp;Humidity;BMP_temperature;BMP_pressure;BME280_temperature;BME280_humidity;BME280_pressure;Samples;Min_cycle;Max_cycle;Signal;HPM_P1;HPM_P2
2021/12/22 00:01:26;;;;;;;17.37;8.03;;;-0.90;99.90;;;;;;5055159;28;20028;-82
2021/12/22 00:03:52;;;;;;;15.13;7.60;;;-0.90;99.90;;;;;;5055607;28;20033;-83
2021/12/22 00:06:25;;;;;;;15.43;7.60;;;-0.90;99.90;;;;;;5067467;28;20024;-83
2021/12/22 00:08:51;;;;;;;14.37;7.40;;;-1.00;99.90;;;;;;5094368;28;20024;-83
2021/12/22 00:11:18;;;;;;;16.03;7.07;;;-1.00;99.90;;;;;;5091514;28;20081;-82
2021/12/22 00:13:44;;;;;;;14.07;7.33;;;-1.10;99.90;;;;;;5092961;28;20032;-83
2021/12/22 00:16:10;;;;;;;12.63;7.33;;;-1.00;99.90;;;;;;5076076;28;20461;-83
2021/12/22 00:18:36;;;;;;;18.17;8.00;;;-1.10;99.90;;;;;;5075656;28;20061;-83
2021/12/22 00:21:02;;;;;;;14.77;7.33;;;-1.10;99.90;;;;;;5084129;28;20044;-83
2021/12/22 00:23:27;;;;;;;13.93;7.93;;;-1.10;99.90;;;;;;5096221;28;20032;-82
2021/12/22 00:25:53;;;;;;;15.10;7.43;;;-1.10;99.90;;;;;;5095847;28;20366;-83
2021/12/22 00:28:19;;;;;;;15.07;7.50;;;-1.20;99.90;;;;;;5096076;28;20024;-83
2021/12/22 00:30:45;;;;;;;16.67;7.80;;;-1.20;99.90;;;;;;5096345;28;20024;-84
2021/12/22 00:33:12;;;;;;;17.07;7.97;;;-1.30;99.90;;;;;;5089190;28;20032;-84
2021/12/22 00:35:45;;;;;;;15.43;7.40;;;-1.30;99.90;;;;;;5075303;28;20028;-84
2021/12/22 00:38:21;;;;;;;14.20;7.03;;;-1.30;99.90;;;;;;5075998;28;20081;-84
2021/12/22 00:40:48;;;;;;;13.70;7.53;;;-1.30;99.90;;;;;;5092981;28;20016;-84
2021/12/22 00:43:15;;;;;;;13.47;7.27;;;-1.30;99.90;;;;;;5075307;28;20028;-84
2021/12/22 00:45:41;;;;;;;16.20;7.00;;;-1.40;99.90;;;;;;5074907;28;20035;-83
2021/12/22 00:48:08;;;;;;;12.70;7.07;;;-1.50;99.90;;;;;;5075698;28;20032;-83
2021/12/22 00:50:36;;;;;;;15.50;6.87;;;-1.50;99.90;;;;;;5074618;28;20028;-84
2021/12/22 00:53:02;;;;;;;15.43;7.00;;;-1.60;99.90;;;;;;5075398;28;20035;-84
2021/12/22 00:55:28;;;;;;;15.57;7.23;;;-1.70;99.90;;;;;;5074613;28;20659;-84
2021/12/22 00:57:54;;;;;;;19.90;8.40;;;-1.70;99.90;;;;;;5075104;28;20112;-84
2021/12/22 01:00:22;;;;;;;17.13;7.77;;;-1.70;99.90;;;;;;5091822;28;20032;-84
2021/12/22 01:02:47;;;;;;;16.53;7.17;;;-1.80;99.90;;;;;;5074492;28;20051;-83
2021/12/22 01:05:15;;;;;;;13.50;7.07;;;-1.80;99.90;;;;;;5095219;28;20063;-84
2021/12/22 01:07:45;;;;;;;16.90;7.97;;;-1.90;99.90;;;;;;5094999;28;20024;-84
2021/12/22 01:10:12;;;;;;;15.33;7.77;;;-1.80;99.90;;;;;;5111896;28;20700;-84
2021/12/22 01:12:38;;;;;;;16.47;7.63;;;-1.80;99.90;;;;;;5077418;28;20024;-84
2021/12/22 01:15:08;;;;;;;18.90;8.00;;;-1.90;99.90;;;;;;5079165;28;20031;-84
2021/12/22 01:17:40;;;;;;;14.33;7.67;;;-1.90;99.90;;;;;;5078236;28;20031;-84
2021/12/22 01:20:12;;;;;;;;;;;-1.90;99.90;;;;;;5097011;28;20407;-84
2021/12/22 01:25:09;;;;;;;15.37;7.20;;;-1.90;99.90;;;;;;5096533;28;20473;-84
2021/12/22 01:27:39;;;;;;;16.80;7.57;;;-2.00;99.90;;;;;;5077970;28;20031;-83
2021/12/22 01:30:15;;;;;;;12.53;7.57;;;-2.00;99.90;;;;;;5097051;28;20392;-84
2021/12/22 01:32:41;;;;;;;12.23;6.90;;;-2.20;99.90;;;;;;5097851;28;20131;-84
2021/12/22 01:35:10;;;;;;;13.03;7.37;;;-2.30;99.90;;;;;;5099418;28;20028;-84
2021/12/22 01:37:36;;;;;;;14.43;7.03;;;-2.40;99.90;;;;;;5098904;28;20504;-84
2021/12/22 01:40:04;;;;;;;15.57;7.53;;;-2.50;99.90;;;;;;5098971;28;20047;-84
2021/12/22 01:42:30;;;;;;;13.17;7.53;;;-2.50;99.90;;;;;;5116530;28;20019;-83
2021/12/22 01:45:13;;;;;;;13.30;7.10;;;-2.50;99.90;;;;;;5117414;28;20031;-83
2021/12/22 01:50:41;;;;;;;13.03;6.80;;;-2.50;99.90;;;;;;5116667;28;20042;-83
2021/12/22 01:53:34;;;;;;;11.80;6.33;;;-2.60;99.90;;;;;;5099250;28;20035;-83
2021/12/22 01:56:25;;;;;;;15.83;7.20;;;-2.70;99.90;;;;;;5098900;28;20024;-83
2021/12/22 01:58:53;;;;;;;13.47;7.07;;;-2.60;99.90;;;;;;5098617;28;20024;-83
2021/12/22 02:01:20;;;;;;;13.73;7.00;;;-2.80;99.90;;;;;;5115932;28;20031;-83
2021/12/22 02:03:48;;;;;;;13.23;7.17;;;-2.90;99.90;;;;;;5098491;28;20039;-84
2021/12/22 02:06:15;;;;;;;16.57;7.90;;;-2.90;99.90;;;;;;5098888;28;20032;-84
2021/12/22 02:08:44;;;;;;;14.23;7.80;;;-2.90;99.90;;;;;;5098430;28;20015;-82
2021/12/22 02:11:11;;;;;;;16.00;7.80;;;-2.80;99.90;;;;;;5098717;28;20035;-83
2021/12/22 02:13:40;;;;;;;15.20;7.47;;;-2.90;99.90;;;;;;5098472;28;20035;-83
2021/12/22 02:16:12;;;;;;;13.63;6.80;;;-2.90;99.90;;;;;;5098707;28;20031;-83
2021/12/22 02:18:45;;;;;;;22.50;9.73;;;-2.90;99.90;;;;;;5098056;28;20073;-83
2021/12/22 02:21:11;;;;;;;21.13;9.50;;;-3.00;99.90;;;;;;5116439;28;20051;-83
2021/12/22 02:23:38;;;;;;;21.37;9.90;;;-3.00;99.90;;;;;;5097609;28;20039;-83
2021/12/22 02:26:12;;;;;;;20.67;8.87;;;-3.10;99.90;;;;;;5116584;28;20072;-83
2021/12/22 02:28:44;;;;;;;48.63;16.20;;;-3.20;99.90;;;;;;5098624;28;20170;-83
2021/12/22 02:31:13;;;;;;;44.92;16.50;;;-3.20;99.90;;;;;;5098561;28;20028;-83
2021/12/22 02:33:42;;;;;;;37.23;13.70;;;-3.30;99.90;;;;;;5085389;28;20044;-82
2021/12/22 02:36:34;;;;;;;27.23;10.77;;;-3.40;99.90;;;;;;5078694;28;20029;-83
2021/12/22 02:38:59;;;;;;;23.93;11.07;;;-3.40;99.90;;;;;;5095321;28;20028;-83
2021/12/22 02:41:30;;;;;;;16.10;8.40;;;-3.50;99.90;;;;;;5075961;28;20028;-84
2021/12/22 02:43:58;;;;;;;18.25;8.10;;;-3.40;99.90;;;;;;5077928;28;20039;-83
2021/12/22 02:46:28;;;;;;;14.80;7.40;;;-3.40;99.90;;;;;;5077604;28;20032;-83
2021/12/22 02:48:54;;;;;;;11.43;7.03;;;-3.50;99.90;;;;;;5077674;28;20054;-83
2021/12/22 02:51:21;;;;;;;13.07;7.10;;;-3.50;99.90;;;;;;5094913;28;20059;-84
2021/12/22 02:56:32;;;;;;;22.67;11.07;;;-3.60;99.90;;;;;;5095624;28;20059;-83
2021/12/22 02:59:19;;;;;;;24.73;12.50;;;-3.60;99.90;;;;;;5077497;28;20028;-83
2021/12/22 03:04:29;;;;;;;22.73;12.07;;;-3.60;99.90;;;;;;5110066;28;20031;-83
2021/12/22 03:06:58;;;;;;;;;;;-3.60;99.90;;;;;;5098476;28;20032;-84
2021/12/22 03:09:29;;;;;;;22.93;10.43;;;-3.60;99.90;;;;;;5096971;28;19990;-83
2021/12/22 03:11:58;;;;;;;22.70;11.10;;;-3.60;99.90;;;;;;5082045;28;20111;-83
2021/12/22 03:14:24;;;;;;;17.33;8.60;;;-3.50;99.90;;;;;;5076787;28;20268;-83
2021/12/22 03:16:51;;;;;;;15.03;7.93;;;-3.50;99.90;;;;;;5077302;28;20024;-83
2021/12/22 03:19:21;;;;;;;12.37;7.30;;;-3.60;99.90;;;;;;5077507;28;20552;-84
2021/12/22 03:21:48;;;;;;;14.90;6.70;;;-3.60;99.90;;;;;;5076512;28;20078;-84
2021/12/22 03:24:15;;;;;;;14.40;6.90;;;-3.60;99.90;;;;;;5077187;28;20114;-83
2021/12/22 03:26:42;;;;;;;13.37;6.87;;;-3.50;99.90;;;;;;5077104;28;20028;-83
2021/12/22 03:29:10;;;;;;;13.77;6.63;;;-3.50;99.90;;;;;;5087316;28;20024;-83
2021/12/22 03:31:36;;;;;;;15.73;7.10;;;-3.40;99.90;;;;;;5114864;28;20484;-84
2021/12/22 03:34:02;;;;;;;14.37;7.33;;;-3.50;99.90;;;;;;5096937;28;20411;-82
2021/12/22 03:36:28;;;;;;;14.70;7.60;;;-3.50;99.90;;;;;;5097015;28;20088;-83
2021/12/22 03:38:53;;;;;;;16.77;7.57;;;-3.50;99.90;;;;;;5115368;28;20055;-83
2021/12/22 03:41:19;;;;;;;13.93;6.97;;;-3.60;99.90;;;;;;5114032;28;20051;-83
2021/12/22 03:43:45;;;;;;;14.37;7.17;;;-3.70;99.90;;;;;;5096758;28;20161;-83
2021/12/22 03:46:10;;;;;;;14.53;7.47;;;-3.70;99.90;;;;;;5097391;28;20035;-84
2021/12/22 03:48:36;;;;;;;16.37;7.80;;;-3.80;99.90;;;;;;5115016;28;20032;-84
2021/12/22 03:51:02;;;;;;;17.93;8.37;;;-3.80;99.90;;;;;;5097344;28;20533;-83
2021/12/22 03:53:27;;;;;;;14.87;7.67;;;-3.90;99.90;;;;;;5114105;28;20028;-83
2021/12/22 03:55:53;;;;;;;17.00;7.83;;;-3.90;99.90;;;;;;5114889;28;20488;-83
2021/12/22 03:58:19;;;;;;;14.83;7.70;;;-3.90;99.90;;;;;;5094304;28;20065;-83
2021/12/22 04:00:45;;;;;;;11.97;7.00;;;-3.90;99.90;;;;;;5075181;28;20028;-83
2021/12/22 04:03:17;;;;;;;17.13;6.83;;;-3.80;99.90;;;;;;5076324;28;20085;-83
2021/12/22 04:05:44;;;;;;;14.88;7.13;;;-3.80;99.90;;;;;;5075438;28;20177;-82
2021/12/22 04:08:13;;;;;;;15.20;6.77;;;-3.80;99.90;;;;;;5076510;28;20101;-82
2021/12/22 04:10:39;;;;;;;17.77;7.30;;;-3.70;99.90;;;;;;5079973;28;20019;-83
2021/12/22 04:13:04;;;;;;;14.27;7.30;;;-3.70;99.90;;;;;;5096624;28;20034;-83
2021/12/22 04:15:31;;;;;;;14.47;7.23;;;-3.80;99.90;;;;;;5096369;28;20027;-83
2021/12/22 04:17:57;;;;;;;15.33;7.33;;;-3.80;99.90;;;;;;5115039;28;20028;-83
2021/12/22 04:20:23;;;;;;;15.40;7.17;;;-3.90;99.90;;;;;;5114344;28;20055;-83
2021/12/22 04:22:50;;;;;;;13.23;6.47;;;-4.00;99.90;;;;;;5096134;28;20031;-83
2021/12/22 04:25:21;;;;;;;12.17;6.97;;;-4.00;99.90;;;;;;5096655;28;20055;-83
2021/12/22 04:27:52;;;;;;;14.85;6.55;;;-3.90;99.90;;;;;;5114256;28;20036;-83
2021/12/22 04:30:19;;;;;;;13.87;7.10;;;-3.90;99.90;;;;;;5096288;28;20054;-83
2021/12/22 04:32:44;;;;;;;17.10;8.20;;;-3.90;99.90;;;;;;5095207;28;20048;-83
2021/12/22 04:35:10;;;;;;;17.37;7.37;;;-3.90;99.90;;;;;;5095938;28;20035;-83
2021/12/22 04:37:36;;;;;;;16.20;7.07;;;-3.90;99.90;;;;;;5113614;28;20573;-83
2021/12/22 04:40:02;;;;;;;14.77;6.77;;;-3.90;99.90;;;;;;5114696;28;20038;-83
2021/12/22 04:42:27;;;;;;;14.73;7.47;;;-3.80;99.90;;;;;;5113340;28;20024;-83
2021/12/22 04:44:56;;;;;;;15.10;7.67;;;-3.90;99.90;;;;;;5114082;28;20043;-82
2021/12/22 04:47:21;;;;;;;13.07;6.87;;;-3.90;99.90;;;;;;5095720;28;20020;-83
2021/12/22 04:49:47;;;;;;;12.13;7.47;;;-3.90;99.90;;;;;;5113661;28;20053;-83
2021/12/22 04:52:19;;;;;;;13.30;6.57;;;-3.80;99.90;;;;;;5113641;28;20016;-84
2021/12/22 04:55:04;;;;;;;13.00;7.40;;;-3.80;99.90;;;;;;5113994;28;20024;-83
2021/12/22 04:57:31;;;;;;;12.97;7.13;;;-3.80;99.90;;;;;;5113999;28;20020;-83
2021/12/22 04:59:57;;;;;;;18.17;7.53;;;-3.80;99.90;;;;;;5096335;28;20069;-83
2021/12/22 05:02:23;;;;;;;15.23;7.30;;;-3.80;99.90;;;;;;5113986;28;20028;-83
2021/12/22 05:04:49;;;;;;;14.10;6.90;;;-3.80;99.90;;;;;;5095955;28;20062;-83
2021/12/22 05:07:14;;;;;;;14.93;7.17;;;-3.70;99.90;;;;;;5096967;28;20490;-83
2021/12/22 05:09:40;;;;;;;17.10;7.03;;;-3.70;99.90;;;;;;5095623;28;20031;-83
2021/12/22 05:12:06;;;;;;;14.47;7.60;;;-3.70;99.90;;;;;;5096204;28;20107;-83
2021/12/22 05:14:32;;;;;;;18.90;8.07;;;-3.80;99.90;;;;;;5095790;28;20028;-83
2021/12/22 05:17:01;;;;;;;15.23;7.13;;;-3.80;99.90;;;;;;5114131;28;20463;-83
2021/12/22 05:19:27;;;;;;;15.10;7.53;;;-3.70;99.90;;;;;;5113573;28;20023;-83
2021/12/22 05:21:53;;;;;;;16.00;7.47;;;-3.60;99.90;;;;;;5113693;28;20048;-83
2021/12/22 05:24:18;;;;;;;15.27;7.30;;;-3.60;99.90;;;;;;5095399;28;20032;-83
2021/12/22 05:26:44;;;;;;;14.93;7.00;;;-3.50;99.90;;;;;;5113781;28;20261;-83
2021/12/22 05:29:11;;;;;;;14.33;7.57;;;-3.50;99.90;;;;;;5095659;28;20065;-83
2021/12/22 05:31:37;;;;;;;16.47;7.30;;;-3.50;99.90;;;;;;5113840;28;20027;-82
2021/12/22 05:34:03;;;;;;;16.23;7.47;;;-3.50;99.90;;;;;;5082367;28;20028;-83
2021/12/22 05:36:29;;;;;;;17.07;7.97;;;-3.50;99.90;;;;;;5093247;28;20465;-82
2021/12/22 05:38:54;;;;;;;17.03;7.87;;;-3.50;99.90;;;;;;5075704;28;20036;-83
2021/12/22 05:41:20;;;;;;;16.57;6.87;;;-3.50;99.90;;;;;;5092919;28;20039;-83
2021/12/22 05:43:45;;;;;;;16.30;7.73;;;-3.50;99.90;;;;;;5092157;28;20074;-83
2021/12/22 05:46:11;;;;;;;14.70;7.17;;;-3.50;99.90;;;;;;5075052;28;20024;-83
2021/12/22 05:48:37;;;;;;;17.23;7.53;;;-3.50;99.90;;;;;;5074649;28;20135;-82
2021/12/22 05:51:03;;;;;;;15.83;6.93;;;-3.60;99.90;;;;;;5075715;28;20453;-82
2021/12/22 05:53:29;;;;;;;13.27;6.77;;;-3.70;99.90;;;;;;5074928;28;20381;-82
2021/12/22 05:55:57;;;;;;;15.60;7.40;;;-3.70;99.90;;;;;;5093629;28;20046;-83
2021/12/22 05:58:23;;;;;;;15.93;6.80;;;-3.70;99.90;;;;;;5076252;28;20134;-82
2021/12/22 06:00:49;;;;;;;14.50;6.83;;;-3.70;99.90;;;;;;5096567;28;20053;-83
2021/12/22 06:03:15;;;;;;;14.80;7.70;;;-3.70;99.90;;;;;;5078696;28;20104;-83
2021/12/22 06:05:41;;;;;;;16.27;7.27;;;-3.80;99.90;;;;;;5078580;28;20036;-83
2021/12/22 06:08:07;;;;;;;16.10;7.90;;;-3.80;99.90;;;;;;5078835;28;20055;-83
2021/12/22 06:10:34;;;;;;;17.43;7.70;;;-3.70;99.90;;;;;;5096073;28;20025;-83
2021/12/22 06:13:08;;;;;;;19.63;7.30;;;-3.60;99.90;;;;;;5107800;28;20529;-83
2021/12/22 06:15:35;;;;;;;16.13;8.20;;;-3.60;99.90;;;;;;5098615;28;20481;-83
2021/12/22 06:18:02;;;;;;;17.07;8.50;;;-3.70;99.90;;;;;;5099020;28;20029;-83
2021/12/22 06:20:30;;;;;;;17.20;7.97;;;-3.70;99.90;;;;;;5095148;28;20462;-83
2021/12/22 06:22:55;;;;;;;23.43;8.53;;;-3.70;99.90;;;;;;5095850;28;20054;-82
2021/12/22 06:25:22;;;;;;;14.87;7.70;;;-3.70;99.90;;;;;;5096120;28;20039;-83
2021/12/22 06:27:48;;;;;;;18.03;8.47;;;-3.70;99.90;;;;;;5095312;28;20020;-82
2021/12/22 06:30:14;;;;;;;19.83;8.77;;;-3.70;99.90;;;;;;5096099;28;20081;-83
2021/12/22 06:32:40;;;;;;;17.10;8.70;;;-3.70;99.90;;;;;;5092382;28;20024;-84
2021/12/22 06:35:07;;;;;;;16.70;8.63;;;-3.70;99.90;;;;;;5075175;28;20493;-83
2021/12/22 06:37:34;;;;;;;16.47;8.30;;;-3.70;99.90;;;;;;5074264;28;20024;-82
2021/12/22 06:40:00;;;;;;;20.10;9.07;;;-3.80;99.90;;;;;;5074658;28;20111;-82
2021/12/22 06:42:26;;;;;;;17.97;9.13;;;-3.70;99.90;;;;;;5075014;28;20056;-82
2021/12/22 06:44:52;;;;;;;18.03;7.73;;;-3.70;99.90;;;;;;5073902;28;20469;-82
2021/12/22 06:47:18;;;;;;;18.37;8.60;;;-3.70;99.90;;;;;;5074503;28;20031;-82
2021/12/22 06:49:44;;;;;;;16.87;8.40;;;-3.80;99.90;;;;;;5074447;28;20446;-82
2021/12/22 06:52:09;;;;;;;17.37;8.90;;;-3.80;99.90;;;;;;5075143;28;20074;-82
2021/12/22 06:54:35;;;;;;;19.93;9.30;;;-3.80;99.90;;;;;;5073809;28;20115;-83
2021/12/22 06:57:02;;;;;;;18.70;9.53;;;-3.80;99.90;;;;;;5075516;28;20025;-82
2021/12/22 06:59:28;;;;;;;20.17;9.00;;;-3.80;99.90;;;;;;5074002;28;20495;-81
2021/12/22 07:01:53;;;;;;;17.63;9.37;;;-3.80;99.90;;;;;;5074347;28;20089;-81
2021/12/22 07:04:19;;;;;;;22.77;9.83;;;-3.80;99.90;;;;;;5075746;28;20044;-83
2021/12/22 07:06:45;;;;;;;18.37;8.50;;;-3.70;99.90;;;;;;5073778;28;20036;-84
2021/12/22 07:09:11;;;;;;;19.73;8.50;;;-3.70;99.90;;;;;;5072987;28;20060;-83
2021/12/22 07:11:38;;;;;;;20.23;9.30;;;-3.60;99.90;;;;;;5073580;28;20085;-83
2021/12/22 07:14:07;;;;;;;30.53;10.03;;;-3.60;99.90;;;;;;5091737;28;20035;-83
2021/12/22 07:16:33;;;;;;;21.20;9.80;;;-3.60;99.90;;;;;;5094162;28;20024;-84
2021/12/22 07:18:58;;;;;;;24.93;10.60;;;-3.60;99.90;;;;;;5094666;28;20028;-83
2021/12/22 07:21:24;;;;;;;24.73;10.63;;;-3.60;99.90;;;;;;5106825;28;20077;-82
2021/12/22 07:23:50;;;;;;;24.63;10.63;;;-3.60;99.90;;;;;;5096908;28;20031;-84
2021/12/22 07:26:16;;;;;;;28.23;11.07;;;-3.60;99.90;;;;;;5097959;28;20035;-83
2021/12/22 07:28:45;;;;;;;24.30;10.47;;;-3.70;99.90;;;;;;5097628;28;20028;-82
2021/12/22 07:31:11;;;;;;;23.83;10.00;;;-3.80;99.90;;;;;;5097709;28;20063;-83
2021/12/22 07:33:38;;;;;;;18.40;9.17;;;-3.90;99.90;;;;;;5096797;28;20032;-83
2021/12/22 07:36:05;;;;;;;19.00;8.60;;;-3.90;99.90;;;;;;5115923;28;20022;-83
2021/12/22 07:38:40;;;;;;;19.17;8.80;;;-3.80;99.90;;;;;;5097346;28;20031;-83
2021/12/22 07:41:07;;;;;;;19.77;9.07;;;-3.80;99.90;;;;;;5097636;28;20074;-83
2021/12/22 07:43:35;;;;;;;22.67;10.00;;;-3.80;99.90;;;;;;5096845;28;20059;-83
2021/12/22 07:46:02;;;;;;;19.60;9.30;;;-3.80;99.90;;;;;;5097122;28;20073;-83
2021/12/22 07:48:28;;;;;;;21.47;9.53;;;-3.80;99.90;;;;;;5097777;28;20026;-82
2021/12/22 07:50:54;;;;;;;20.23;10.10;;;-4.00;99.90;;;;;;5096563;28;20069;-82
2021/12/22 07:53:20;;;;;;;20.70;9.90;;;-4.00;99.90;;;;;;5097607;28;20045;-82
2021/12/22 07:55:47;;;;;;;21.57;9.67;;;-4.10;99.90;;;;;;5096569;28;20027;-82
2021/12/22 07:58:12;;;;;;;20.37;9.40;;;-4.10;99.90;;;;;;5097008;28;20033;-82
2021/12/22 08:00:38;;;;;;;20.57;9.17;;;-4.20;99.90;;;;;;5114662;28;20024;-82
2021/12/22 08:03:05;;;;;;;24.80;10.23;;;-4.20;99.90;;;;;;5096432;28;20031;-82
2021/12/22 08:05:31;;;;;;;23.20;9.37;;;-4.20;99.90;;;;;;5097304;28;20482;-82
2021/12/22 08:07:59;;;;;;;26.67;11.40;;;-4.20;99.90;;;;;;5114589;28;20027;-82
2021/12/22 08:10:25;;;;;;;25.67;10.50;;;-4.20;99.90;;;;;;5115086;28;20020;-83
2021/12/22 08:12:50;;;;;;;24.53;11.27;;;-4.20;99.90;;;;;;5114432;28;20106;-83
2021/12/22 08:15:16;;;;;;;29.33;11.43;;;-4.20;99.90;;;;;;5115298;28;20027;-83
2021/12/22 08:17:42;;;;;;;21.70;10.37;;;-4.20;99.90;;;;;;5096680;28;20022;-83
2021/12/22 08:20:09;;;;;;;25.57;11.07;;;-4.10;99.90;;;;;;5096400;28;20023;-83
2021/12/22 08:22:35;;;;;;;29.17;11.40;;;-4.10;99.90;;;;;;5095663;28;20016;-84
2021/12/22 08:25:01;;;;;;;27.43;11.17;;;-4.00;99.90;;;;;;5096722;28;20475;-83
2021/12/22 08:27:27;;;;;;;24.77;10.20;;;-3.90;99.90;;;;;;5115108;28;20030;-82
2021/12/22 08:29:53;;;;;;;25.07;10.40;;;-3.80;99.90;;;;;;5114088;28;20024;-83
2021/12/22 08:32:18;;;;;;;26.40;10.77;;;-3.70;99.90;;;;;;5096647;28;20072;-84
2021/12/22 08:34:46;;;;;;;25.63;10.70;;;-3.80;99.90;;;;;;5114225;28;20034;-84
2021/12/22 08:39:58;;;;;;;26.77;10.97;;;-3.70;99.90;;;;;;5114437;28;20035;-82
2021/12/22 08:42:25;;;;;;;26.63;10.80;;;-3.70;99.90;;;;;;5096165;28;20055;-82
2021/12/22 08:44:52;;;;;;;23.07;10.10;;;-3.70;99.90;;;;;;5113777;28;20047;-82
2021/12/22 08:47:18;;;;;;;25.87;10.67;;;-3.70;99.90;;;;;;5114843;28;20084;-82
2021/12/22 08:49:45;;;;;;;25.83;10.83;;;-3.60;99.90;;;;;;5095841;28;20020;-82
2021/12/22 08:52:11;;;;;;;28.27;10.90;;;-3.60;99.90;;;;;;5096667;28;20028;-83
2021/12/22 08:54:37;;;;;;;28.43;11.90;;;-3.50;99.90;;;;;;5114169;28;20027;-82
2021/12/22 08:57:03;;;;;;;26.83;11.37;;;-3.40;99.90;;;;;;5096726;28;20026;-83
2021/12/22 08:59:32;;;;;;;28.23;11.53;;;-3.40;99.90;;;;;;5096429;28;20639;-83
2021/12/22 09:01:58;;;;;;;30.27;12.77;;;-3.40;99.90;;;;;;5114253;28;20027;-83
2021/12/22 09:04:24;;;;;;;31.17;12.10;;;-3.40;99.90;;;;;;5114123;28;20035;-82
2021/12/22 09:06:51;;;;;;;30.73;12.50;;;-3.30;99.90;;;;;;5096050;28;20084;-83
2021/12/22 09:09:19;;;;;;;27.27;10.90;;;-3.40;99.90;;;;;;5114025;28;20035;-83
2021/12/22 09:11:45;;;;;;;26.80;10.67;;;-3.30;99.90;;;;;;5095777;28;20060;-82
2021/12/22 09:14:12;;;;;;;29.57;12.03;;;-3.30;99.90;;;;;;5096628;28;20520;-82
2021/12/22 09:16:38;;;;;;;26.50;11.70;;;-3.30;99.90;;;;;;5096140;28;20028;-83
2021/12/22 09:19:05;;;;;;;29.77;12.87;;;-3.20;99.90;;;;;;5114341;28;20024;-82
2021/12/22 09:21:31;;;;;;;28.30;12.37;;;-3.30;99.90;;;;;;5113947;28;20039;-83
2021/12/22 09:23:57;;;;;;;39.43;13.33;;;-3.20;99.90;;;;;;5095459;28;20035;-82
2021/12/22 09:26:23;;;;;;;27.33;11.50;;;-3.20;99.90;;;;;;5096338;28;20032;-83
2021/12/22 09:28:51;;;;;;;34.53;13.10;;;-3.20;99.90;;;;;;5095998;28;20045;-82
2021/12/22 09:31:17;;;;;;;31.07;12.13;;;-3.10;99.90;;;;;;5095750;28;20024;-83
2021/12/22 09:33:43;;;;;;;24.43;11.77;;;-3.00;99.90;;;;;;5087636;28;20032;-82
2021/12/22 09:36:11;;;;;;;30.00;12.53;;;-2.90;99.90;;;;;;5079839;28;20026;-82
2021/12/22 09:38:38;;;;;;;34.80;13.90;;;-2.80;99.90;;;;;;5079582;28;20358;-82
2021/12/22 09:41:06;;;;;;;29.03;12.60;;;-2.80;99.90;;;;;;5097289;28;20047;-83
2021/12/22 09:43:31;;;;;;;32.43;12.70;;;-2.70;99.90;;;;;;5079340;28;20475;-81
2021/12/22 09:46:04;;;;;;;36.27;15.13;;;-2.70;99.90;;;;;;5079106;28;20027;-81
2021/12/22 09:53:54;;;;;;;38.20;12.73;;;-2.60;99.90;;;;;;5097210;28;20024;-81
2021/12/22 09:56:23;;;;;;;31.93;13.33;;;-2.50;99.90;;;;;;5079695;28;20020;-80
2021/12/22 09:58:50;;;;;;;32.97;13.33;;;-2.40;99.90;;;;;;5078316;28;20035;-78
2021/12/22 10:01:23;;;;;;;31.10;12.73;;;-2.30;99.90;;;;;;5078832;28;20480;-80
2021/12/22 10:03:50;;;;;;;33.47;14.40;;;-2.30;99.90;;;;;;5082714;28;20518;-79
2021/12/22 10:06:16;;;;;;;28.60;12.43;;;-2.30;99.90;;;;;;5078862;28;20054;-80
2021/12/22 10:09:04;;;;;;;33.00;14.67;;;-2.30;99.90;;;;;;5095957;28;20024;-80
2021/12/22 10:11:33;;;;;;;34.73;14.03;;;-2.20;99.90;;;;;;5096164;28;20054;-80
2021/12/22 10:13:58;;;;;;;36.03;14.00;;;-2.20;99.90;;;;;;5099069;28;20183;-79
2021/12/22 10:16:26;;;;;;;35.43;15.77;;;-2.30;99.90;;;;;;5098890;28;20488;-79
2021/12/22 10:19:05;;;;;;;35.43;14.53;;;-2.30;99.90;;;;;;5097602;28;20076;-80
2021/12/22 10:21:33;;;;;;;35.43;14.97;;;-2.30;99.90;;;;;;5098482;28;20111;-78
2021/12/22 10:24:02;;;;;;;35.37;13.93;;;-2.30;99.90;;;;;;5115947;28;20041;-83
2021/12/22 10:26:28;;;;;;;34.67;14.53;;;-2.40;99.90;;;;;;5098133;28;20031;-79
2021/12/22 10:29:07;;;;;;;35.67;15.23;;;-2.30;99.90;;;;;;5098495;28;20024;-79
2021/12/22 10:31:35;;;;;;;37.80;15.93;;;-2.20;99.90;;;;;;5098839;28;20028;-80
2021/12/22 10:34:05;;;;;;;38.13;15.13;;;-2.20;99.90;;;;;;5097703;28;20040;-80
2021/12/22 10:36:49;;;;;;;36.63;14.10;;;-2.10;99.90;;;;;;5097158;28;20027;-81
2021/12/22 10:39:28;;;;;;;38.53;13.67;;;-2.20;99.90;;;;;;5098429;28;20023;-81
2021/12/22 10:42:11;;;;;;;32.10;13.83;;;-2.20;99.90;;;;;;5086936;28;20134;-81
2021/12/22 10:44:40;;;;;;;38.63;14.60;;;-2.20;99.90;;;;;;5094799;28;20035;-80
2021/12/22 10:47:33;;;;;;;41.27;15.20;;;-2.20;99.90;;;;;;5081835;28;20024;-80
2021/12/22 10:50:00;;;;;;;34.30;15.35;;;-2.20;99.90;;;;;;5097484;28;20031;-83
2021/12/22 10:52:26;;;;;;;37.87;15.93;;;-2.20;99.90;;;;;;5091992;28;20495;-83
2021/12/22 10:55:13;;;;;;;35.20;14.93;;;-2.10;99.90;;;;;;5095444;28;20024;-82
2021/12/22 10:57:44;;;;;;;33.67;14.73;;;-2.10;99.90;;;;;;5078140;28;20028;-83
2021/12/22 11:00:19;;;;;;;35.63;15.60;;;-2.10;99.90;;;;;;5095753;28;20049;-83
2021/12/22 11:03:01;;;;;;;39.00;15.20;;;-2.10;99.90;;;;;;5079592;28;20040;-82
2021/12/22 11:05:29;;;;;;;32.58;14.75;;;-2.00;99.90;;;;;;5097901;28;20032;-81
2021/12/22 11:07:55;;;;;;;37.87;15.50;;;-1.90;99.90;;;;;;5115760;28;20172;-82
2021/12/22 11:10:29;;;;;;;37.43;15.07;;;-1.90;99.90;;;;;;5115892;28;20035;-82
2021/12/22 11:13:04;;;;;;;33.67;15.00;;;-1.90;99.90;;;;;;5097158;28;20385;-80
2021/12/22 11:15:30;;;;;;;33.33;15.43;;;-1.90;99.90;;;;;;5097698;28;20052;-83
2021/12/22 11:17:56;;;;;;;38.37;15.10;;;-1.70;99.90;;;;;;5114681;28;20494;-82
2021/12/22 11:20:23;;;;;;;35.67;15.57;;;-1.70;99.90;;;;;;5083375;28;20060;-83
2021/12/22 11:23:01;;;;;;;35.80;14.47;;;-1.60;99.90;;;;;;5076485;28;20020;-82
2021/12/22 11:25:28;;;;;;;41.80;15.67;;;-1.60;99.90;;;;;;5077255;28;20028;-83
2021/12/22 11:27:55;;;;;;;36.10;14.77;;;-1.60;99.90;;;;;;5076292;28;20024;-82
2021/12/22 11:30:23;;;;;;;35.83;13.60;;;-1.60;99.90;;;;;;5076998;28;20052;-82
2021/12/22 11:32:49;;;;;;;35.00;15.07;;;-1.50;99.90;;;;;;5078833;28;20062;-82
2021/12/22 11:35:16;;;;;;;36.67;14.40;;;-1.50;99.90;;;;;;5115070;28;20054;-82
2021/12/22 11:37:43;;;;;;;35.20;14.63;;;-1.40;99.90;;;;;;5097045;28;20064;-81
2021/12/22 11:40:10;;;;;;;36.93;15.07;;;-1.30;99.90;;;;;;5097187;28;20049;-82
2021/12/22 11:42:40;;;;;;;35.50;14.50;;;-1.30;99.90;;;;;;5097265;28;20019;-83
2021/12/22 11:45:12;;;;;;;35.93;14.87;;;-1.10;99.90;;;;;;5114856;28;20027;-82
2021/12/22 11:47:44;;;;;;;36.33;15.13;;;-1.10;99.90;;;;;;5096635;28;20019;-83
2021/12/22 11:50:26;;;;;;;31.55;12.45;;;-1.10;99.90;;;;;;5096730;28;20027;-82
2021/12/22 11:53:03;;;;;;;38.53;14.50;;;-1.10;99.90;;;;;;5076205;28;20028;-82
2021/12/22 11:55:51;;;;;;;30.00;12.97;;;-1.00;99.90;;;;;;5079192;28;20035;-82
2021/12/22 11:58:32;;;;;;;30.93;13.17;;;-1.00;99.90;;;;;;5096792;28;20119;-82
2021/12/22 12:00:59;;;;;;;30.20;13.52;;;-1.00;99.90;;;;;;5096237;28;20027;-82
2021/12/22 12:03:36;;;;;;;33.87;13.47;;;-1.00;99.90;;;;;;5096744;28;20039;-82
2021/12/22 12:06:21;;;;;;;31.70;14.20;;;-0.90;99.90;;;;;;5096322;28;20419;-82
2021/12/22 12:08:57;;;;;;;29.43;12.77;;;-0.70;99.90;;;;;;5096271;28;20028;-82
2021/12/22 12:11:57;;;;;;;32.13;13.90;;;-0.70;99.90;;;;;;5096373;28;20376;-82
2021/12/22 12:14:55;;;;;;;33.87;13.03;;;-0.60;99.90;;;;;;5114256;28;20023;-82
2021/12/22 12:23:32;;;;;;;34.20;13.77;;;-0.60;99.90;;;;;;5113401;28;20078;-81
2021/12/22 12:26:04;;;;;;;36.13;13.60;;;-0.20;99.90;;;;;;5095798;28;20069;-80
2021/12/22 12:28:31;;;;;;;31.90;13.43;;;-0.20;99.90;;;;;;5096617;28;20022;-81
2021/12/22 12:31:01;;;;;;;29.73;12.47;;;-0.20;99.90;;;;;;5095008;28;20039;-81
2021/12/22 12:33:42;;;;;;;28.77;13.63;;;0.00;99.90;;;;;;5087204;28;20036;-81
2021/12/22 12:36:11;;;;;;;21.60;9.65;;;-0.10;99.90;;;;;;5083443;28;20024;-81
2021/12/22 12:38:40;;;;;;;35.70;15.63;;;-0.10;99.90;;;;;;5096190;28;20027;-81
2021/12/22 12:41:21;;;;;;;32.30;14.33;;;-0.40;99.90;;;;;;5094790;28;20063;-81
2021/12/22 12:43:53;;;;;;;32.23;14.17;;;-0.40;99.90;;;;;;5075189;28;20489;-81
2021/12/22 12:46:29;;;;;;;36.53;14.57;;;-0.40;99.90;;;;;;5075633;28;20035;-82
2021/12/22 12:49:07;;;;;;;35.33;13.53;;;-0.40;99.90;;;;;;5076313;28;20024;-82
2021/12/22 12:51:46;;;;;;;34.03;14.03;;;-0.50;99.90;;;;;;5095078;28;20114;-83
2021/12/22 12:54:18;;;;;;;32.17;13.90;;;-0.50;99.90;;;;;;5113768;28;20110;-81
2021/12/22 12:56:43;;;;;;;23.98;11.15;;;-0.60;99.90;;;;;;5095984;28;20024;-82
2021/12/22 12:59:10;;;;;;;34.17;14.07;;;-0.60;99.90;;;;;;5095501;28;20028;-82
2021/12/22 13:01:50;;;;;;;38.77;15.83;;;-0.50;99.90;;;;;;5095383;28;20039;-82
2021/12/22 13:04:20;;;;;;;33.60;14.63;;;-0.50;99.90;;;;;;5090140;28;20042;-82
2021/12/22 13:06:47;;;;;;;34.30;14.17;;;-0.50;99.90;;;;;;5095203;28;20037;-82